createdAt,value
2023-04-28T00:02:08.356Z,3.10
2023-04-28T00:04:35.195Z,3.87
2023-04-28T00:07:02.079Z,4.37
2023-04-28T00:09:28.604Z,3.97
2023-04-28T00:11:55.189Z,5.23
2023-04-28T00:14:21.684Z,2.57
2023-04-28T00:16:48.471Z,2.33
2023-04-28T00:19:15.170Z,4.47
2023-04-28T00:21:41.708Z,4.40
2023-04-28T00:24:08.473Z,4.93
2023-04-28T00:26:35.091Z,5.37
2023-04-28T00:29:01.643Z,2.73
2023-04-28T00:39:02.157Z,3.70
2023-04-28T00:41:44.056Z,3.30
2023-04-28T00:44:10.743Z,5.07
2023-04-28T00:46:37.294Z,3.07
2023-04-28T00:49:04.477Z,2.77
2023-04-28T00:51:33.940Z,4.87
2023-04-28T00:54:00.877Z,3.73
2023-04-28T00:56:30.912Z,3.10
2023-04-28T00:58:57.870Z,3.17
2023-04-28T01:09:53.870Z,3.57
2023-04-28T01:12:20.467Z,8.50
2023-04-28T01:14:47.411Z,2.90
2023-04-28T01:17:14.277Z,4.50
2023-04-28T01:23:18.702Z,3.40
2023-04-28T01:25:45.450Z,4.17
2023-04-28T01:28:12.121Z,3.37
2023-04-28T01:30:38.980Z,2.20
2023-04-28T01:33:17.374Z,3.67
2023-04-28T01:35:43.977Z,3.47
2023-04-28T01:38:10.508Z,3.97
2023-04-28T01:40:37.205Z,6.23
2023-04-28T01:43:03.781Z,3.83
2023-04-28T01:45:30.637Z,5.37
2023-04-28T01:47:57.385Z,4.50
2023-04-28T01:50:23.992Z,2.80
2023-04-28T01:52:50.715Z,3.50
2023-04-28T01:55:17.420Z,4.47
2023-04-28T01:57:50.289Z,4.23
2023-04-28T02:00:17.314Z,4.00
2023-04-28T02:02:44.098Z,4.20
2023-04-28T02:05:11.408Z,4.80
2023-04-28T02:07:38.161Z,3.17
2023-04-28T02:10:05.040Z,3.37
2023-04-28T02:12:31.634Z,3.67
2023-04-28T02:15:04.417Z,3.73
2023-04-28T02:17:31.395Z,3.57
2023-04-28T02:19:58.001Z,4.00
2023-04-28T02:22:24.950Z,5.03
2023-04-28T02:24:51.693Z,5.73
2023-04-28T02:27:18.644Z,4.60
2023-04-28T02:29:45.312Z,4.13
2023-04-28T02:32:12.070Z,5.23
2023-04-28T02:34:38.641Z,4.53
2023-04-28T02:37:05.172Z,6.93
2023-04-28T02:39:33.217Z,4.27
2023-04-28T02:41:59.717Z,4.90
2023-04-28T02:44:26.317Z,3.57
2023-04-28T02:46:53.012Z,9.93
2023-04-28T02:49:19.602Z,3.93
2023-04-28T02:51:46.346Z,4.30
2023-04-28T02:54:13.018Z,5.30
2023-04-28T02:56:41.185Z,5.50
2023-04-28T02:59:08.269Z,5.07
2023-04-28T03:01:34.892Z,6.40
2023-04-28T03:04:01.677Z,4.90
2023-04-28T03:06:28.679Z,4.40
2023-04-28T03:08:55.226Z,6.07
2023-04-28T03:11:21.783Z,4.33
2023-04-28T03:13:48.394Z,3.03
2023-04-28T03:16:15.063Z,7.63
2023-04-28T03:22:27.842Z,5.40
2023-04-28T03:24:54.460Z,6.33
2023-04-28T03:27:21.531Z,5.23
2023-04-28T03:29:48.242Z,5.13
2023-04-28T03:32:14.846Z,5.87
2023-04-28T03:34:41.825Z,5.43
2023-04-28T03:37:08.423Z,4.13
2023-04-28T03:39:35.112Z,6.30
2023-04-28T03:42:04.598Z,5.13
2023-04-28T03:44:31.595Z,5.30
2023-04-28T03:46:58.259Z,5.20
2023-04-28T03:49:24.951Z,4.97
2023-04-28T03:51:54.594Z,4.67
2023-04-28T03:54:21.311Z,3.70
2023-04-28T03:56:47.951Z,4.47
2023-04-28T03:59:14.612Z,6.83
2023-04-28T04:01:41.352Z,9.00
2023-04-28T04:04:08.167Z,4.90
2023-04-28T04:06:35.016Z,4.80
2023-04-28T04:12:48.003Z,5.40
2023-04-28T04:15:14.624Z,5.23
2023-04-28T04:17:41.208Z,5.13
2023-04-28T04:20:07.996Z,5.27
2023-04-28T04:22:34.471Z,4.27
2023-04-28T04:25:00.922Z,3.40
2023-04-28T04:27:27.410Z,3.60
2023-04-28T04:29:54.036Z,5.40
2023-04-28T04:32:20.557Z,3.40
2023-04-28T04:34:47.331Z,3.53
2023-04-28T04:37:14.022Z,5.03
2023-04-28T04:39:40.548Z,4.90
2023-04-28T04:42:22.697Z,5.80
2023-04-28T04:52:24.001Z,2.77
2023-04-28T04:54:50.690Z,5.23
2023-04-28T04:57:17.477Z,3.00
2023-04-28T04:59:44.129Z,4.03
2023-04-28T05:05:51.485Z,6.03
2023-04-28T05:08:18.130Z,6.50
2023-04-28T05:10:44.678Z,4.77
2023-04-28T05:13:11.557Z,9.03
2023-04-28T05:15:38.140Z,5.40
2023-04-28T05:18:09.897Z,14.20
2023-04-28T05:20:36.754Z,4.87
2023-04-28T05:23:03.422Z,6.13
2023-04-28T05:25:33.007Z,6.20
2023-04-28T05:27:59.556Z,6.87
2023-04-28T05:30:26.069Z,4.90
2023-04-28T05:32:53.981Z,4.50
2023-04-28T05:35:20.538Z,6.20
2023-04-28T05:37:47.102Z,4.13
2023-04-28T05:40:13.754Z,6.37
2023-04-28T05:42:40.371Z,6.90
2023-04-28T05:48:47.379Z,7.13
2023-04-28T05:51:16.975Z,8.40
2023-04-28T05:53:43.458Z,5.47
2023-04-28T05:56:09.990Z,4.93
2023-04-28T05:58:36.698Z,3.97
2023-04-28T06:01:03.209Z,3.83
2023-04-28T06:03:30.211Z,6.27
2023-04-28T06:05:56.892Z,4.13
2023-04-28T06:08:23.457Z,4.27
2023-04-28T06:10:50.053Z,5.33
2023-04-28T06:13:16.570Z,4.23
2023-04-28T06:15:43.148Z,4.73
2023-04-28T06:18:09.907Z,4.90
2023-04-28T06:20:36.753Z,3.00
2023-04-28T06:23:06.912Z,4.83
2023-04-28T06:25:33.512Z,3.27
2023-04-28T06:28:00.116Z,7.33
2023-04-28T06:30:26.737Z,6.30
2023-04-28T06:32:53.467Z,6.27
2023-04-28T06:35:20.236Z,3.47
2023-04-28T06:37:46.788Z,12.03
2023-04-28T06:40:13.393Z,10.83
2023-04-28T06:42:39.906Z,7.53
2023-04-28T06:45:06.726Z,4.90
2023-04-28T06:47:34.727Z,4.67
2023-04-28T06:50:02.041Z,5.33
2023-04-28T06:52:38.570Z,7.80
2023-04-28T06:55:10.009Z,3.43
2023-04-28T06:57:38.422Z,3.07
2023-04-28T07:00:05.439Z,6.90
2023-04-28T07:02:35.627Z,2.40
2023-04-28T07:05:02.784Z,3.63
2023-04-28T07:07:29.976Z,4.03
2023-04-28T07:09:56.660Z,4.27
2023-04-28T07:12:23.547Z,3.53
2023-04-28T07:14:51.155Z,4.60
2023-04-28T07:17:17.717Z,3.53
2023-04-28T07:19:47.432Z,2.50
2023-04-28T07:22:14.050Z,3.53
2023-04-28T07:28:37.400Z,4.53
2023-04-28T07:31:04.074Z,4.87
2023-04-28T07:33:42.080Z,4.03
2023-04-28T07:36:23.785Z,2.47
2023-04-28T07:38:50.566Z,5.83
2023-04-28T07:41:43.386Z,3.57
2023-04-28T07:44:10.510Z,2.90
2023-04-28T07:53:53.203Z,2.60
2023-04-28T07:56:28.651Z,4.77
2023-04-28T07:58:55.493Z,2.57
2023-04-28T08:01:40.876Z,3.23
2023-04-28T08:04:07.759Z,3.30
2023-04-28T08:06:36.362Z,2.63
2023-04-28T08:09:03.011Z,2.47
2023-04-28T08:11:29.563Z,2.40
2023-04-28T08:14:01.230Z,3.43
2023-04-28T08:16:30.865Z,3.67
2023-04-28T08:18:58.106Z,3.80
2023-04-28T08:28:34.102Z,1.37
2023-04-28T08:31:01.397Z,3.87
2023-04-28T08:33:28.065Z,5.13
2023-04-28T08:35:55.386Z,2.17
2023-04-28T08:38:24.206Z,3.00
2023-04-28T08:40:53.011Z,3.27
2023-04-28T08:43:21.819Z,3.80
2023-04-28T08:45:48.629Z,2.20
2023-04-28T08:48:19.275Z,2.03
2023-04-28T08:50:53.718Z,4.47
2023-04-28T08:53:25.321Z,5.37
2023-04-28T08:55:54.449Z,3.37
2023-04-28T09:02:26.796Z,4.60
2023-04-28T09:04:53.715Z,4.50
2023-04-28T09:07:20.633Z,3.03
2023-04-28T09:09:47.373Z,3.43
2023-04-28T09:12:14.028Z,1.97
2023-04-28T09:14:40.742Z,2.73
2023-04-28T09:17:14.509Z,4.37
2023-04-28T09:19:43.504Z,3.37
2023-04-28T09:22:21.939Z,4.27
2023-04-28T09:24:53.351Z,5.87
2023-04-28T09:27:26.108Z,1.50
2023-04-28T09:29:53.763Z,3.23
2023-04-28T09:32:21.861Z,4.53
2023-04-28T09:34:52.428Z,7.13
2023-04-28T09:37:20.182Z,11.13
2023-04-28T09:39:50.936Z,5.23
2023-04-28T09:42:49.762Z,5.17
2023-04-28T09:45:16.683Z,2.73
2023-04-28T09:47:43.974Z,3.30
2023-04-28T09:50:14.504Z,3.30
2023-04-28T09:52:42.180Z,2.50
2023-04-28T09:55:08.922Z,4.30
2023-04-28T09:57:36.223Z,2.80
2023-04-28T10:00:06.285Z,2.13
2023-04-28T10:02:43.136Z,3.47
2023-04-28T10:05:11.203Z,3.27
2023-04-28T10:07:39.385Z,8.93
2023-04-28T10:10:07.257Z,2.83
2023-04-28T10:12:33.994Z,5.13
2023-04-28T10:15:00.622Z,8.00
2023-04-28T10:17:29.638Z,3.50
2023-04-28T10:19:57.383Z,1.57
2023-04-28T10:22:38.962Z,1.80
2023-04-28T10:25:12.134Z,2.57
2023-04-28T10:27:39.744Z,2.83
2023-04-28T10:30:26.693Z,1.63
2023-04-28T10:33:06.916Z,2.33
2023-04-28T10:35:36.410Z,2.23
2023-04-28T10:38:03.398Z,3.30
2023-04-28T10:40:34.415Z,3.53
2023-04-28T10:43:01.433Z,4.80
2023-04-28T10:45:46.453Z,2.63
2023-04-28T10:48:13.151Z,2.83
2023-04-28T10:50:59.602Z,3.23
2023-04-28T10:53:48.464Z,6.70
2023-04-28T10:56:19.194Z,9.93
2023-04-28T10:58:46.496Z,5.00
2023-04-28T11:08:31.824Z,5.33
2023-04-28T11:11:15.047Z,3.70
2023-04-28T11:13:42.617Z,3.20
2023-04-28T11:16:11.614Z,5.83
2023-04-28T11:18:54.910Z,5.40
2023-04-28T11:21:26.017Z,3.97
2023-04-28T11:23:52.743Z,5.80
2023-04-28T11:29:56.535Z,3.70
2023-04-28T11:32:35.936Z,3.73
2023-04-28T11:35:04.500Z,5.33
2023-04-28T11:37:31.159Z,5.50
2023-04-28T11:40:10.198Z,3.83
2023-04-28T11:42:36.797Z,4.00
2023-04-28T11:45:04.672Z,4.70
2023-04-28T11:47:32.742Z,5.87
2023-04-28T11:49:59.751Z,4.13
2023-04-28T11:52:27.517Z,4.70
2023-04-28T11:54:58.058Z,3.93
2023-04-28T11:57:25.545Z,4.40
2023-04-28T11:59:52.489Z,3.30
2023-04-28T12:02:28.196Z,6.43
2023-04-28T12:05:05.631Z,4.63
2023-04-28T12:07:54.996Z,4.17
2023-04-28T12:10:22.173Z,5.03
2023-04-28T12:12:52.597Z,5.30
2023-04-28T12:15:21.604Z,2.60
2023-04-28T12:17:51.917Z,2.53
2023-04-28T12:20:38.103Z,5.47
2023-04-28T12:23:08.773Z,4.57
2023-04-28T12:25:48.542Z,4.83
2023-04-28T12:28:15.418Z,3.13
2023-04-28T12:30:42.759Z,3.10
2023-04-28T12:33:25.509Z,4.87
2023-04-28T12:35:53.870Z,4.57
2023-04-28T12:38:22.612Z,3.50
2023-04-28T12:40:49.171Z,3.97
2023-04-28T12:43:15.806Z,4.67
2023-04-28T12:45:42.788Z,3.27
2023-04-28T12:48:12.387Z,4.77
2023-04-28T12:57:48.011Z,2.73
2023-04-28T13:00:16.557Z,3.87
2023-04-28T13:02:43.305Z,5.53
2023-04-28T13:05:10.504Z,8.47
2023-04-28T13:07:37.116Z,4.93
2023-04-28T13:10:03.946Z,10.60
2023-04-28T13:12:30.862Z,5.07
2023-04-28T13:14:57.417Z,5.00
2023-04-28T13:17:27.350Z,3.73
2023-04-28T13:23:43.006Z,4.40
2023-04-28T13:26:09.641Z,5.33
2023-04-28T13:28:37.111Z,4.87
2023-04-28T13:31:03.958Z,7.90
2023-04-28T13:33:31.621Z,6.57
2023-04-28T13:35:58.801Z,5.53
2023-04-28T13:38:26.370Z,4.30
2023-04-28T13:40:53.469Z,3.63
2023-04-28T13:43:20.308Z,5.23
2023-04-28T13:45:47.182Z,7.00
2023-04-28T13:48:13.855Z,5.03
2023-04-28T13:50:40.640Z,3.90
2023-04-28T13:53:07.396Z,5.73
2023-04-28T13:55:34.072Z,7.23
2023-04-28T13:58:04.646Z,62.63
2023-04-28T14:00:32.647Z,6.30
2023-04-28T14:03:00.258Z,14.20
2023-04-28T14:05:29.735Z,11.10
2023-04-28T14:07:59.586Z,7.47
2023-04-28T14:10:26.786Z,19.47
2023-04-28T14:12:53.291Z,16.17
2023-04-28T14:15:19.870Z,6.97
2023-04-28T14:17:46.640Z,6.67
2023-04-28T14:20:14.484Z,5.90
2023-04-28T14:22:40.984Z,6.40
2023-04-28T14:25:07.961Z,4.17
2023-04-28T14:27:34.456Z,4.83
2023-04-28T14:30:01.150Z,5.47
2023-04-28T14:32:27.798Z,5.50
2023-04-28T14:34:54.284Z,4.60
2023-04-28T14:37:20.871Z,4.87
2023-04-28T14:39:48.458Z,3.73
2023-04-28T14:42:15.115Z,5.77
2023-04-28T14:44:41.803Z,3.90
2023-04-28T14:47:08.691Z,2.93
2023-04-28T14:49:35.484Z,6.07
2023-04-28T14:52:02.023Z,4.40
2023-04-28T14:54:28.794Z,5.80
2023-04-28T14:56:55.378Z,6.23
2023-04-28T14:59:21.990Z,5.33
2023-04-28T15:01:50.793Z,5.87
2023-04-28T15:04:18.306Z,6.40
2023-04-28T15:06:45.205Z,6.93
2023-04-28T15:09:12.045Z,9.43
2023-04-28T15:11:41.203Z,5.17
2023-04-28T15:18:56.662Z,8.93
2023-04-28T15:21:23.740Z,3.83
2023-04-28T15:23:50.310Z,15.33
2023-04-28T15:26:17.009Z,5.60
2023-04-28T15:28:43.742Z,3.83
2023-04-28T15:31:10.457Z,5.23
2023-04-28T15:33:37.807Z,5.30
2023-04-28T15:36:05.432Z,5.37
2023-04-28T15:38:35.087Z,4.57
2023-04-28T15:41:01.814Z,5.20
2023-04-28T15:43:28.547Z,4.40
2023-04-28T15:45:55.212Z,4.83
2023-04-28T15:48:23.338Z,5.57
2023-04-28T15:50:50.609Z,5.30
2023-04-28T15:53:17.960Z,4.33
2023-04-28T15:55:45.985Z,8.10
2023-04-28T15:58:12.793Z,5.80
2023-04-28T16:00:41.485Z,7.33
2023-04-28T16:03:08.241Z,3.37
2023-04-28T16:05:35.086Z,4.30
2023-04-28T16:08:02.026Z,5.73
2023-04-28T16:10:28.922Z,7.43
2023-04-28T16:12:58.056Z,5.83
2023-04-28T16:15:25.381Z,5.67
2023-04-28T16:17:52.466Z,21.47
2023-04-28T16:20:19.382Z,5.10
2023-04-28T16:22:46.979Z,7.43
2023-04-28T16:25:16.522Z,6.97
2023-04-28T16:27:43.339Z,7.07
2023-04-28T16:30:10.400Z,5.80
2023-04-28T16:32:38.552Z,5.57
2023-04-28T16:35:15.185Z,7.70
2023-04-28T16:37:43.299Z,4.97
2023-04-28T16:40:11.748Z,3.10
2023-04-28T16:42:39.011Z,5.80
2023-04-28T16:45:05.968Z,4.83
2023-04-28T16:47:34.242Z,4.00
2023-04-28T16:50:01.183Z,9.20
2023-04-28T16:52:43.107Z,4.67
2023-04-28T16:55:10.629Z,6.20
2023-04-28T16:57:37.723Z,6.97
2023-04-28T17:00:05.152Z,6.20
2023-04-28T17:02:33.531Z,16.83
2023-04-28T17:05:00.505Z,5.90
2023-04-28T17:07:27.840Z,5.63
2023-04-28T17:09:54.634Z,10.30
2023-04-28T17:12:23.628Z,5.27
2023-04-28T17:14:51.317Z,4.53
2023-04-28T17:17:19.211Z,5.97
2023-04-28T17:19:45.871Z,4.97
2023-04-28T17:22:12.776Z,4.17
2023-04-28T17:24:39.439Z,5.17
2023-04-28T17:27:06.667Z,2.83
2023-04-28T17:29:33.181Z,6.70
2023-04-28T17:31:59.756Z,8.40
2023-04-28T17:34:26.339Z,5.90
2023-04-28T17:36:52.900Z,5.50
2023-04-28T17:39:19.468Z,5.90
2023-04-28T17:41:46.970Z,5.47
2023-04-28T17:44:13.534Z,6.23
2023-04-28T17:46:40.248Z,5.73
2023-04-28T17:49:06.795Z,5.40
2023-04-28T17:51:33.434Z,6.40
2023-04-28T17:54:00.172Z,5.17
2023-04-28T17:56:27.091Z,8.27
2023-04-28T18:10:16.712Z,9.63
2023-04-28T18:12:43.310Z,7.03
2023-04-28T18:15:11.448Z,9.63
2023-04-28T18:17:38.175Z,13.37
2023-04-28T18:20:07.026Z,7.70
2023-04-28T18:22:33.789Z,10.00
2023-04-28T18:25:00.531Z,11.67
2023-04-28T18:27:27.133Z,5.27
2023-04-28T18:29:53.689Z,6.40
2023-04-28T18:32:20.332Z,6.67
2023-04-28T18:34:47.358Z,11.13
2023-04-28T18:37:13.884Z,11.47
2023-04-28T18:39:40.662Z,10.53
2023-04-28T18:42:07.259Z,12.00
2023-04-28T18:44:33.803Z,9.03
2023-04-28T18:47:00.389Z,12.73
2023-04-28T18:49:45.572Z,12.13
2023-04-28T18:52:17.477Z,12.67
2023-04-28T18:54:44.123Z,10.73
2023-04-28T18:57:10.885Z,12.43
2023-04-28T18:59:37.404Z,11.70
2023-04-28T19:02:03.984Z,16.40
2023-04-28T19:04:31.101Z,15.70
2023-04-28T19:06:57.705Z,17.97
2023-04-28T19:09:24.251Z,20.57
2023-04-28T19:11:50.885Z,18.97
2023-04-28T19:14:31.971Z,19.63
2023-04-28T19:16:58.645Z,18.83
2023-04-28T19:19:31.193Z,20.33
2023-04-28T19:21:57.841Z,19.00
2023-04-28T19:24:24.316Z,19.07
2023-04-28T19:26:53.647Z,17.00
2023-04-28T19:29:21.627Z,15.57
2023-04-28T19:31:49.118Z,15.37
2023-04-28T19:34:18.308Z,15.07
2023-04-28T19:36:44.912Z,14.47
2023-04-28T19:39:11.553Z,16.33
2023-04-28T19:41:38.083Z,15.83
2023-04-28T19:44:23.263Z,14.13
2023-04-28T19:46:52.079Z,15.60
2023-04-28T19:49:18.794Z,14.50
2023-04-28T19:51:45.676Z,16.97
2023-04-28T19:54:12.188Z,14.90
2023-04-28T19:56:38.857Z,16.70
2023-04-28T19:59:05.836Z,20.03
2023-04-28T20:01:32.537Z,19.40
2023-04-28T20:04:00.636Z,21.23
2023-04-28T20:06:32.225Z,21.73
2023-04-28T20:08:59.020Z,20.33
2023-04-28T20:11:28.271Z,19.57
2023-04-28T20:13:57.109Z,19.00
2023-04-28T20:16:29.682Z,19.63
2023-04-28T20:18:56.590Z,18.97
2023-04-28T20:21:23.433Z,18.37
2023-04-28T20:23:51.314Z,19.63
2023-04-28T20:26:18.073Z,24.67
2023-04-28T20:28:46.114Z,23.87
2023-04-28T20:31:12.785Z,26.47
2023-04-28T20:33:39.522Z,26.80
2023-04-28T20:36:06.223Z,22.33
2023-04-28T20:38:36.090Z,30.37
2023-04-28T20:41:05.094Z,25.93
2023-04-28T20:43:37.683Z,29.77
2023-04-28T20:46:10.264Z,24.53
2023-04-28T20:48:37.231Z,23.43
2023-04-28T20:51:04.406Z,23.30
2023-04-28T20:53:33.031Z,27.67
2023-04-28T20:55:59.723Z,24.97
2023-04-28T20:58:26.633Z,26.97
2023-04-28T21:04:21.345Z,16.60
2023-04-28T21:06:49.260Z,16.10
2023-04-28T21:09:15.911Z,16.37
2023-04-28T21:11:42.680Z,17.07
2023-04-28T21:14:10.243Z,16.10
2023-04-28T21:16:37.038Z,15.07
2023-04-28T21:19:03.743Z,16.97
2023-04-28T21:21:30.959Z,13.43
2023-04-28T21:23:57.726Z,21.10
2023-04-28T21:26:24.418Z,21.00
2023-04-28T21:28:51.400Z,24.43
2023-04-28T21:31:20.818Z,21.13
2023-04-28T21:33:47.424Z,20.20
2023-04-28T21:36:14.017Z,16.03
2023-04-28T21:38:43.558Z,16.67
2023-04-28T21:41:12.555Z,14.10
2023-04-28T21:43:39.613Z,16.70
2023-04-28T21:46:06.477Z,16.03
2023-04-28T21:48:33.389Z,15.97
2023-04-28T21:51:07.272Z,16.40
2023-04-28T21:53:34.087Z,17.23
2023-04-28T21:56:00.743Z,15.13
2023-04-28T21:58:27.846Z,15.43
2023-04-28T22:00:55.246Z,16.83
2023-04-28T22:03:22.275Z,16.10
2023-04-28T22:05:49.422Z,17.13
2023-04-28T22:08:17.067Z,16.70
2023-04-28T22:10:45.719Z,16.37
2023-04-28T22:13:16.127Z,19.77
2023-04-28T22:19:28.990Z,18.00
2023-04-28T22:21:55.836Z,17.30
2023-04-28T22:24:22.695Z,14.73
2023-04-28T22:26:50.026Z,14.97
2023-04-28T22:29:16.750Z,16.23
2023-04-28T22:31:55.533Z,16.73
2023-04-28T22:34:24.204Z,17.43
2023-04-28T22:36:56.182Z,15.70
2023-04-28T22:39:30.184Z,14.63
2023-04-28T22:41:56.795Z,20.37
2023-04-28T22:44:23.557Z,16.83
2023-04-28T22:46:50.528Z,15.67
2023-04-28T22:49:17.223Z,16.33
2023-04-28T22:51:47.067Z,15.67
2023-04-28T22:54:13.858Z,15.40
2023-04-28T23:00:26.431Z,17.27
2023-04-28T23:02:53.162Z,16.23
2023-04-28T23:05:19.804Z,19.77
2023-04-28T23:07:46.886Z,14.67
2023-04-28T23:10:14.738Z,16.07
2023-04-28T23:12:41.552Z,18.07
2023-04-28T23:15:08.385Z,19.27
2023-04-28T23:17:34.946Z,15.67
2023-04-28T23:20:01.572Z,15.37
2023-04-28T23:22:28.314Z,14.33
2023-04-28T23:24:54.959Z,13.10
2023-04-28T23:27:21.609Z,16.37
2023-04-28T23:29:48.222Z,12.03
2023-04-28T23:32:14.940Z,15.30
2023-04-28T23:34:42.846Z,15.80
2023-04-28T23:37:40.574Z,13.13
2023-04-28T23:40:07.688Z,13.33
2023-04-28T23:42:34.254Z,14.03
2023-04-28T23:45:01.701Z,12.17
2023-04-28T23:47:29.621Z,14.57
2023-04-28T23:49:56.276Z,13.50
2023-04-28T23:52:39.863Z,11.37
2023-04-28T23:55:09.837Z,12.33
2023-04-28T23:57:37.494Z,11.83
